Foreston, Minnesota
Current Conditions -  °F | °C
As of 12:14 AM on Sunday 26 Oct 2014 (Local Time) from KPNM Reporting Station
Clear Clear  
Wind Chill: 36°   Ceiling: Unl
Heat Index: 36°   Visibility: 10mi
Dew Point: 28°   Wind: 0mph
Humidity: 75%   Direction: NA
Pressure: 30.04"   Gusts: NA
Location:  45.73°N, 93.71°W
Report Text: KPNM 260514Z AUTO 00000KT 10SM CLR 02/M02 A3004 RMK AO2
Loading
Personal Weather Stations






























Interactive Weather Map
Tropical Storm Tracking
New forecast layout! Learn more

10-Day Weather Forecast

Advertisements
Track Severe Weather on mobile